sensor_id;sensor_type;location;lat;lon;timestamp;temperature;humidity
70593;DHT22;58294;42.988;20.338;2022-12-24T00:00:07;77.60;2124.80
70593;DHT22;58294;42.988;20.338;2022-12-24T00:02:33;77.50;2099.20
70593;DHT22;58294;42.988;20.338;2022-12-24T00:04:58;77.40;2073.60
70593;DHT22;58294;42.988;20.338;2022-12-24T00:07:24;77.30;2124.80
70593;DHT22;58294;42.988;20.338;2022-12-24T00:09:50;77.30;2124.80
70593;DHT22;58294;42.988;20.338;2022-12-24T00:12:15;77.20;2124.80
70593;DHT22;58294;42.988;20.338;2022-12-24T00:14:41;77.20;2124.80
70593;DHT22;58294;42.988;20.338;2022-12-24T00:17:07;77.20;2150.40
70593;DHT22;58294;42.988;20.338;2022-12-24T00:19:33;77.20;2176.00
70593;DHT22;58294;42.988;20.338;2022-12-24T00:21:58;77.30;2150.40
70593;DHT22;58294;42.988;20.338;2022-12-24T00:24:24;77.30;2124.80
70593;DHT22;58294;42.988;20.338;2022-12-24T00:26:50;77.20;2150.40
70593;DHT22;58294;42.988;20.338;2022-12-24T00:29:15;77.20;2150.40
70593;DHT22;58294;42.988;20.338;2022-12-24T00:31:41;77.30;2176.00
70593;DHT22;58294;42.988;20.338;2022-12-24T00:34:07;77.30;2150.40
70593;DHT22;58294;42.988;20.338;2022-12-24T00:36:33;77.30;2176.00
70593;DHT22;58294;42.988;20.338;2022-12-24T00:38:59;77.40;2150.40
70593;DHT22;58294;42.988;20.338;2022-12-24T00:41:25;77.40;2150.40
70593;DHT22;58294;42.988;20.338;2022-12-24T00:43:54;77.40;2150.40
70593;DHT22;58294;42.988;20.338;2022-12-24T00:46:21;77.40;2150.40
70593;DHT22;58294;42.988;20.338;2022-12-24T00:48:47;77.40;2150.40
70593;DHT22;58294;42.988;20.338;2022-12-24T00:51:13;77.40;2150.40
70593;DHT22;58294;42.988;20.338;2022-12-24T00:53:39;77.30;2124.80
70593;DHT22;58294;42.988;20.338;2022-12-24T00:56:06;77.30;2176.00
70593;DHT22;58294;42.988;20.338;2022-12-24T00:58:32;77.30;2176.00
70593;DHT22;58294;42.988;20.338;2022-12-24T01:00:58;77.30;2176.00
70593;DHT22;58294;42.988;20.338;2022-12-24T01:03:24;77.40;2201.60
70593;DHT22;58294;42.988;20.338;2022-12-24T01:06:03;77.40;2176.00
70593;DHT22;58294;42.988;20.338;2022-12-24T01:08:29;77.30;2176.00
70593;DHT22;58294;42.988;20.338;2022-12-24T01:10:55;77.30;2150.40
70593;DHT22;58294;42.988;20.338;2022-12-24T01:13:21;77.30;2201.60
70593;DHT22;58294;42.988;20.338;2022-12-24T01:15:47;77.40;2201.60
70593;DHT22;58294;42.988;20.338;2022-12-24T01:18:12;77.40;2201.60
70593;DHT22;58294;42.988;20.338;2022-12-24T01:20:38;77.40;2176.00
70593;DHT22;58294;42.988;20.338;2022-12-24T01:23:04;77.40;2201.60
70593;DHT22;58294;42.988;20.338;2022-12-24T01:25:30;77.50;2227.20
70593;DHT22;58294;42.988;20.338;2022-12-24T01:27:56;77.50;2227.20
70593;DHT22;58294;42.988;20.338;2022-12-24T01:30:21;77.60;2201.60
70593;DHT22;58294;42.988;20.338;2022-12-24T01:32:47;77.60;2201.60
70593;DHT22;58294;42.988;20.338;2022-12-24T01:35:13;77.70;2201.60
70593;DHT22;58294;42.988;20.338;2022-12-24T01:37:39;77.70;2176.00
70593;DHT22;58294;42.988;20.338;2022-12-24T01:40:07;77.70;2201.60
70593;DHT22;58294;42.988;20.338;2022-12-24T01:42:52;102.40;2201.60
70593;DHT22;58294;42.988;20.338;2022-12-24T01:45:44;102.40;2150.40
70593;DHT22;58294;42.988;20.338;2022-12-24T01:51:53;77.50;2124.80
70593;DHT22;58294;42.988;20.338;2022-12-24T01:54:19;77.60;2176.00
70593;DHT22;58294;42.988;20.338;2022-12-24T01:56:55;77.60;2227.20
70593;DHT22;58294;42.988;20.338;2022-12-24T01:59:21;77.70;2227.20
70593;DHT22;58294;42.988;20.338;2022-12-24T02:01:49;77.70;2176.00
70593;DHT22;58294;42.988;20.338;2022-12-24T02:04:38;77.60;2176.00
70593;DHT22;58294;42.988;20.338;2022-12-24T02:07:04;77.60;2176.00
70593;DHT22;58294;42.988;20.338;2022-12-24T02:09:32;77.60;2176.00
70593;DHT22;58294;42.988;20.338;2022-12-24T02:11:58;77.60;2201.60
70593;DHT22;58294;42.988;20.338;2022-12-24T02:14:26;77.70;2227.20
70593;DHT22;58294;42.988;20.338;2022-12-24T02:17:36;77.70;2201.60
70593;DHT22;58294;42.988;20.338;2022-12-24T02:31:05;77.60;2227.20
70593;DHT22;58294;42.988;20.338;2022-12-24T02:33:47;77.70;2176.00
70593;DHT22;58294;42.988;20.338;2022-12-24T02:36:24;77.60;2150.40
70593;DHT22;58294;42.988;20.338;2022-12-24T02:39:02;77.50;2176.00
70593;DHT22;58294;42.988;20.338;2022-12-24T02:41:34;77.50;2201.60
70593;DHT22;58294;42.988;20.338;2022-12-24T02:44:21;77.50;2201.60
70593;DHT22;58294;42.988;20.338;2022-12-24T02:46:49;77.60;2201.60
70593;DHT22;58294;42.988;20.338;2022-12-24T02:49:15;77.50;2201.60
70593;DHT22;58294;42.988;20.338;2022-12-24T02:51:41;77.60;2227.20
70593;DHT22;58294;42.988;20.338;2022-12-24T02:54:07;77.60;2201.60
70593;DHT22;58294;42.988;20.338;2022-12-24T02:56:44;77.70;2227.20
70593;DHT22;58294;42.988;20.338;2022-12-24T03:07:46;77.70;2176.00
70593;DHT22;58294;42.988;20.338;2022-12-24T03:12:57;77.70;2201.60
70593;DHT22;58294;42.988;20.338;2022-12-24T03:15:27;77.70;2176.00
70593;DHT22;58294;42.988;20.338;2022-12-24T03:17:57;77.60;2201.60
70593;DHT22;58294;42.988;20.338;2022-12-24T03:20:46;77.60;2201.60
70593;DHT22;58294;42.988;20.338;2022-12-24T03:23:13;77.60;2227.20
70593;DHT22;58294;42.988;20.338;2022-12-24T03:25:41;77.60;2201.60
70593;DHT22;58294;42.988;20.338;2022-12-24T03:28:10;77.60;2227.20
70593;DHT22;58294;42.988;20.338;2022-12-24T03:30:41;77.60;2227.20
70593;DHT22;58294;42.988;20.338;2022-12-24T03:33:08;77.70;2227.20
70593;DHT22;58294;42.988;20.338;2022-12-24T03:35:34;102.50;2227.20
70593;DHT22;58294;42.988;20.338;2022-12-24T03:37:59;102.50;2227.20
70593;DHT22;58294;42.988;20.338;2022-12-24T03:40:25;102.60;2227.20
70593;DHT22;58294;42.988;20.338;2022-12-24T03:42:51;102.60;2227.20
70593;DHT22;58294;42.988;20.338;2022-12-24T03:45:17;102.70;2227.20
70593;DHT22;58294;42.988;20.338;2022-12-24T03:47:43;102.70;2227.20
70593;DHT22;58294;42.988;20.338;2022-12-24T03:50:09;102.70;2227.20
70593;DHT22;58294;42.988;20.338;2022-12-24T03:52:34;102.70;2227.20
70593;DHT22;58294;42.988;20.338;2022-12-24T03:55:00;102.70;2201.60
70593;DHT22;58294;42.988;20.338;2022-12-24T03:57:26;102.60;2176.00
70593;DHT22;58294;42.988;20.338;2022-12-24T03:59:52;102.60;2227.20
70593;DHT22;58294;42.988;20.338;2022-12-24T04:02:17;102.70;2227.20
70593;DHT22;58294;42.988;20.338;2022-12-24T04:04:43;102.70;2227.20
70593;DHT22;58294;42.988;20.338;2022-12-24T04:07:09;102.80;2227.20
70593;DHT22;58294;42.988;20.338;2022-12-24T04:09:35;102.70;2201.60
70593;DHT22;58294;42.988;20.338;2022-12-24T04:12:00;102.70;2201.60
70593;DHT22;58294;42.988;20.338;2022-12-24T04:14:26;102.70;2176.00
70593;DHT22;58294;42.988;20.338;2022-12-24T04:16:52;102.70;2227.20
70593;DHT22;58294;42.988;20.338;2022-12-24T04:19:18;102.80;2227.20
70593;DHT22;58294;42.988;20.338;2022-12-24T04:21:43;102.90;2201.60
70593;DHT22;58294;42.988;20.338;2022-12-24T04:24:09;102.80;2201.60
70593;DHT22;58294;42.988;20.338;2022-12-24T04:26:35;102.80;2201.60
70593;DHT22;58294;42.988;20.338;2022-12-24T04:29:01;102.80;2201.60
70593;DHT22;58294;42.988;20.338;2022-12-24T04:31:26;102.80;2201.60
70593;DHT22;58294;42.988;20.338;2022-12-24T04:33:52;102.80;2227.20
70593;DHT22;58294;42.988;20.338;2022-12-24T04:36:19;102.80;2201.60
70593;DHT22;58294;42.988;20.338;2022-12-24T04:38:46;102.70;2176.00
70593;DHT22;58294;42.988;20.338;2022-12-24T04:41:19;102.70;2227.20
70593;DHT22;58294;42.988;20.338;2022-12-24T04:43:46;102.70;2201.60
70593;DHT22;58294;42.988;20.338;2022-12-24T04:46:15;102.80;2227.20
70593;DHT22;58294;42.988;20.338;2022-12-24T04:48:43;102.80;2227.20
70593;DHT22;58294;42.988;20.338;2022-12-24T04:51:10;102.80;2227.20
70593;DHT22;58294;42.988;20.338;2022-12-24T04:53:37;102.90;2227.20
70593;DHT22;58294;42.988;20.338;2022-12-24T04:56:03;103.00;2227.20
70593;DHT22;58294;42.988;20.338;2022-12-24T04:58:32;103.00;2227.20
70593;DHT22;58294;42.988;20.338;2022-12-24T05:01:06;103.00;2201.60
70593;DHT22;58294;42.988;20.338;2022-12-24T05:03:32;102.90;2201.60
70593;DHT22;58294;42.988;20.338;2022-12-24T05:06:07;102.90;2201.60
70593;DHT22;58294;42.988;20.338;2022-12-24T05:08:33;102.90;2227.20
70593;DHT22;58294;42.988;20.338;2022-12-24T05:10:59;102.90;2227.20
70593;DHT22;58294;42.988;20.338;2022-12-24T05:13:26;102.90;2227.20
70593;DHT22;58294;42.988;20.338;2022-12-24T05:15:52;102.90;2227.20
70593;DHT22;58294;42.988;20.338;2022-12-24T05:18:18;103.00;2227.20
70593;DHT22;58294;42.988;20.338;2022-12-24T05:20:45;103.00;2227.20
70593;DHT22;58294;42.988;20.338;2022-12-24T05:23:19;103.00;2227.20
70593;DHT22;58294;42.988;20.338;2022-12-24T05:26:16;103.10;2227.20
70593;DHT22;58294;42.988;20.338;2022-12-24T05:28:54;103.10;2227.20
70593;DHT22;58294;42.988;20.338;2022-12-24T05:31:22;103.00;2201.60
70593;DHT22;58294;42.988;20.338;2022-12-24T05:33:48;102.90;2176.00
70593;DHT22;58294;42.988;20.338;2022-12-24T05:36:14;102.90;2227.20
70593;DHT22;58294;42.988;20.338;2022-12-24T05:38:40;103.00;2227.20
70593;DHT22;58294;42.988;20.338;2022-12-24T05:41:06;103.10;2227.20
70593;DHT22;58294;42.988;20.338;2022-12-24T05:43:34;103.20;2227.20
70593;DHT22;58294;42.988;20.338;2022-12-24T05:46:01;103.20;2227.20
70593;DHT22;58294;42.988;20.338;2022-12-24T05:48:27;103.20;2201.60
70593;DHT22;58294;42.988;20.338;2022-12-24T05:50:53;103.10;2227.20
70593;DHT22;58294;42.988;20.338;2022-12-24T05:53:19;103.10;2201.60
70593;DHT22;58294;42.988;20.338;2022-12-24T05:55:45;103.10;2227.20
70593;DHT22;58294;42.988;20.338;2022-12-24T05:58:11;103.10;2201.60
70593;DHT22;58294;42.988;20.338;2022-12-24T06:00:37;103.00;2201.60
70593;DHT22;58294;42.988;20.338;2022-12-24T06:03:03;103.00;2227.20
70593;DHT22;58294;42.988;20.338;2022-12-24T06:05:29;103.00;2201.60
70593;DHT22;58294;42.988;20.338;2022-12-24T06:07:55;103.00;2227.20
70593;DHT22;58294;42.988;20.338;2022-12-24T06:10:21;103.00;2227.20
70593;DHT22;58294;42.988;20.338;2022-12-24T06:12:47;103.10;2227.20
70593;DHT22;58294;42.988;20.338;2022-12-24T06:15:13;103.20;2227.20
70593;DHT22;58294;42.988;20.338;2022-12-24T06:17:38;103.30;2227.20
70593;DHT22;58294;42.988;20.338;2022-12-24T06:20:05;103.30;2227.20
70593;DHT22;58294;42.988;20.338;2022-12-24T06:22:31;103.30;2227.20
70593;DHT22;58294;42.988;20.338;2022-12-24T06:24:57;103.30;2201.60
70593;DHT22;58294;42.988;20.338;2022-12-24T06:27:22;103.20;2201.60
70593;DHT22;58294;42.988;20.338;2022-12-24T06:29:48;103.10;2201.60
70593;DHT22;58294;42.988;20.338;2022-12-24T06:32:14;103.10;2227.20
70593;DHT22;58294;42.988;20.338;2022-12-24T06:34:40;103.10;2227.20
70593;DHT22;58294;42.988;20.338;2022-12-24T06:37:06;103.20;2227.20
70593;DHT22;58294;42.988;20.338;2022-12-24T06:39:32;128.00;2252.80
70593;DHT22;58294;42.988;20.338;2022-12-24T06:41:57;128.10;2252.80
70593;DHT22;58294;42.988;20.338;2022-12-24T06:44:23;128.10;2252.80
70593;DHT22;58294;42.988;20.338;2022-12-24T06:46:49;128.20;2252.80
70593;DHT22;58294;42.988;20.338;2022-12-24T06:49:15;128.20;2252.80
70593;DHT22;58294;42.988;20.338;2022-12-24T06:51:40;128.30;2252.80
70593;DHT22;58294;42.988;20.338;2022-12-24T06:54:06;128.40;2252.80
70593;DHT22;58294;42.988;20.338;2022-12-24T06:56:32;128.40;2252.80
70593;DHT22;58294;42.988;20.338;2022-12-24T06:58:58;128.30;2252.80
70593;DHT22;58294;42.988;20.338;2022-12-24T07:01:23;128.30;2252.80
70593;DHT22;58294;42.988;20.338;2022-12-24T07:03:50;128.30;2252.80
70593;DHT22;58294;42.988;20.338;2022-12-24T07:06:24;128.40;2252.80
70593;DHT22;58294;42.988;20.338;2022-12-24T07:08:50;128.50;2252.80
70593;DHT22;58294;42.988;20.338;2022-12-24T07:11:16;128.70;2252.80
70593;DHT22;58294;42.988;20.338;2022-12-24T07:13:42;128.70;2252.80
70593;DHT22;58294;42.988;20.338;2022-12-24T07:16:08;128.70;2252.80
70593;DHT22;58294;42.988;20.338;2022-12-24T07:18:34;128.70;2252.80
70593;DHT22;58294;42.988;20.338;2022-12-24T07:21:01;128.80;2252.80
70593;DHT22;58294;42.988;20.338;2022-12-24T07:23:27;128.90;2252.80
70593;DHT22;58294;42.988;20.338;2022-12-24T07:25:52;128.90;2252.80
70593;DHT22;58294;42.988;20.338;2022-12-24T07:28:18;153.60;2252.80
70593;DHT22;58294;42.988;20.338;2022-12-24T07:30:44;153.80;2252.80
70593;DHT22;58294;42.988;20.338;2022-12-24T07:33:10;153.80;2252.80
70593;DHT22;58294;42.988;20.338;2022-12-24T07:35:35;153.80;2252.80
70593;DHT22;58294;42.988;20.338;2022-12-24T07:38:02;153.90;2252.80
70593;DHT22;58294;42.988;20.338;2022-12-24T07:40:27;153.90;2252.80
70593;DHT22;58294;42.988;20.338;2022-12-24T07:42:53;154.00;2252.80
70593;DHT22;58294;42.988;20.338;2022-12-24T07:45:19;154.00;2252.80
70593;DHT22;58294;42.988;20.338;2022-12-24T07:47:44;154.20;2252.80
70593;DHT22;58294;42.988;20.338;2022-12-24T07:50:10;154.20;2252.80
70593;DHT22;58294;42.988;20.338;2022-12-24T07:52:36;154.20;2252.80
70593;DHT22;58294;42.988;20.338;2022-12-24T07:55:02;154.20;2252.80
70593;DHT22;58294;42.988;20.338;2022-12-24T07:57:28;154.40;2252.80
70593;DHT22;58294;42.988;20.338;2022-12-24T07:59:53;154.50;2252.80
70593;DHT22;58294;42.988;20.338;2022-12-24T08:02:19;154.50;2252.80
70593;DHT22;58294;42.988;20.338;2022-12-24T08:04:45;154.50;2252.80
70593;DHT22;58294;42.988;20.338;2022-12-24T08:07:11;154.50;2252.80
70593;DHT22;58294;42.988;20.338;2022-12-24T08:09:36;179.20;2252.80
70593;DHT22;58294;42.988;20.338;2022-12-24T08:12:03;179.30;2252.80
70593;DHT22;58294;42.988;20.338;2022-12-24T08:14:29;179.30;2252.80
70593;DHT22;58294;42.988;20.338;2022-12-24T08:16:55;179.40;2252.80
70593;DHT22;58294;42.988;20.338;2022-12-24T08:19:21;179.50;2252.80
70593;DHT22;58294;42.988;20.338;2022-12-24T08:21:47;179.70;2252.80
70593;DHT22;58294;42.988;20.338;2022-12-24T08:24:13;179.70;2227.20
70593;DHT22;58294;42.988;20.338;2022-12-24T08:26:38;179.70;2252.80
70593;DHT22;58294;42.988;20.338;2022-12-24T08:29:05;179.80;2252.80
70593;DHT22;58294;42.988;20.338;2022-12-24T08:31:31;179.90;2252.80
70593;DHT22;58294;42.988;20.338;2022-12-24T08:34:02;180.00;2252.80
70593;DHT22;58294;42.988;20.338;2022-12-24T08:36:28;180.10;2252.80
70593;DHT22;58294;42.988;20.338;2022-12-24T08:38:54;180.10;2252.80
70593;DHT22;58294;42.988;20.338;2022-12-24T08:41:19;204.80;2252.80
70593;DHT22;58294;42.988;20.338;2022-12-24T08:43:45;204.90;2252.80
70593;DHT22;58294;42.988;20.338;2022-12-24T08:46:11;205.10;2252.80
70593;DHT22;58294;42.988;20.338;2022-12-24T08:48:37;205.20;2252.80
70593;DHT22;58294;42.988;20.338;2022-12-24T08:51:10;205.30;2252.80
70593;DHT22;58294;42.988;20.338;2022-12-24T08:53:36;205.40;2252.80
70593;DHT22;58294;42.988;20.338;2022-12-24T09:15:39;230.60;2252.80
70593;DHT22;58294;42.988;20.338;2022-12-24T09:18:04;230.50;2252.80
70593;DHT22;58294;42.988;20.338;2022-12-24T09:20:30;230.70;2252.80
70593;DHT22;58294;42.988;20.338;2022-12-24T09:22:56;231.00;2252.80
70593;DHT22;58294;42.988;20.338;2022-12-24T09:25:22;231.20;2252.80
70593;DHT22;58294;42.988;20.338;2022-12-24T09:27:47;256.00;2252.80
70593;DHT22;58294;42.988;20.338;2022-12-24T09:30:13;256.30;2252.80
70593;DHT22;58294;42.988;20.338;2022-12-24T09:32:39;256.60;2252.80
70593;DHT22;58294;42.988;20.338;2022-12-24T09:35:05;256.60;2252.80
70593;DHT22;58294;42.988;20.338;2022-12-24T09:45:31;307.40;2304.00
70593;DHT22;58294;42.988;20.338;2022-12-24T09:48:08;307.30;2304.00
70593;DHT22;58294;42.988;20.338;2022-12-24T09:53:36;282.50;2227.20
70593;DHT22;58294;42.988;20.338;2022-12-24T09:56:18;282.10;2227.20
70593;DHT22;58294;42.988;20.338;2022-12-24T09:58:47;282.00;2252.80
70593;DHT22;58294;42.988;20.338;2022-12-24T10:01:16;281.90;2278.40
70593;DHT22;58294;42.988;20.338;2022-12-24T10:03:42;281.90;2278.40
70593;DHT22;58294;42.988;20.338;2022-12-24T10:06:16;282.00;2278.40
70593;DHT22;58294;42.988;20.338;2022-12-24T10:11:16;281.90;2278.40
70593;DHT22;58294;42.988;20.338;2022-12-24T10:19:24;281.90;2278.40
70593;DHT22;58294;42.988;20.338;2022-12-24T10:25:03;281.90;2278.40
70593;DHT22;58294;42.988;20.338;2022-12-24T10:27:37;282.00;2278.40
70593;DHT22;58294;42.988;20.338;2022-12-24T10:30:15;282.00;2278.40
70593;DHT22;58294;42.988;20.338;2022-12-24T10:32:41;282.00;2278.40
70593;DHT22;58294;42.988;20.338;2022-12-24T10:37:43;282.10;2278.40
70593;DHT22;58294;42.988;20.338;2022-12-24T10:42:46;282.10;2176.00
70593;DHT22;58294;42.988;20.338;2022-12-24T10:45:17;282.10;2252.80
70593;DHT22;58294;42.988;20.338;2022-12-24T10:57:43;307.20;2176.00
70593;DHT22;58294;42.988;20.338;2022-12-24T11:00:23;282.40;2150.40
70593;DHT22;58294;42.988;20.338;2022-12-24T11:03:19;282.30;2150.40
70593;DHT22;58294;42.988;20.338;2022-12-24T11:05:45;282.30;2124.80
70593;DHT22;58294;42.988;20.338;2022-12-24T11:08:23;282.30;2099.20
70593;DHT22;58294;42.988;20.338;2022-12-24T11:10:56;282.30;2124.80
70593;DHT22;58294;42.988;20.338;2022-12-24T11:13:29;282.30;2124.80
70593;DHT22;58294;42.988;20.338;2022-12-24T11:18:49;282.20;2099.20
70593;DHT22;58294;42.988;20.338;2022-12-24T11:21:24;282.20;2124.80
70593;DHT22;58294;42.988;20.338;2022-12-24T11:23:54;282.30;2150.40
70593;DHT22;58294;42.988;20.338;2022-12-24T11:26:22;282.30;2150.40
70593;DHT22;58294;42.988;20.338;2022-12-24T11:31:33;282.40;2150.40
70593;DHT22;58294;42.988;20.338;2022-12-24T11:36:52;282.40;2073.60
70593;DHT22;58294;42.988;20.338;2022-12-24T11:39:23;282.30;2099.20
70593;DHT22;58294;42.988;20.338;2022-12-24T11:41:50;282.40;2124.80
70593;DHT22;58294;42.988;20.338;2022-12-24T11:46:48;307.30;2099.20
70593;DHT22;58294;42.988;20.338;2022-12-24T11:49:27;307.20;2150.40
70593;DHT22;58294;42.988;20.338;2022-12-24T11:55:17;307.30;2124.80
70593;DHT22;58294;42.988;20.338;2022-12-24T11:57:59;307.20;2099.20
70593;DHT22;58294;42.988;20.338;2022-12-24T12:00:27;307.20;2124.80
70593;DHT22;58294;42.988;20.338;2022-12-24T12:02:55;307.20;2099.20
70593;DHT22;58294;42.988;20.338;2022-12-24T12:05:26;307.30;2150.40
70593;DHT22;58294;42.988;20.338;2022-12-24T12:08:09;307.30;2150.40
70593;DHT22;58294;42.988;20.338;2022-12-24T12:18:20;307.50;2048.00
70593;DHT22;58294;42.988;20.338;2022-12-24T12:20:55;307.40;2099.20
70593;DHT22;58294;42.988;20.338;2022-12-24T12:23:27;307.50;2124.80
70593;DHT22;58294;42.988;20.338;2022-12-24T12:26:01;307.50;2099.20
70593;DHT22;58294;42.988;20.338;2022-12-24T12:28:53;307.50;2073.60
70593;DHT22;58294;42.988;20.338;2022-12-24T12:31:51;307.50;2048.00
70593;DHT22;58294;42.988;20.338;2022-12-24T12:34:35;307.40;2073.60
70593;DHT22;58294;42.988;20.338;2022-12-24T12:37:31;307.40;2022.40
70593;DHT22;58294;42.988;20.338;2022-12-24T12:39:58;307.30;2048.00
70593;DHT22;58294;42.988;20.338;2022-12-24T12:47:50;307.30;2048.00
70593;DHT22;58294;42.988;20.338;2022-12-24T12:53:23;307.30;2073.60
70593;DHT22;58294;42.988;20.338;2022-12-24T13:01:47;307.40;2124.80
70593;DHT22;58294;42.988;20.338;2022-12-24T13:07:36;307.50;2073.60
70593;DHT22;58294;42.988;20.338;2022-12-24T13:20:41;307.40;2099.20
70593;DHT22;58294;42.988;20.338;2022-12-24T13:23:20;307.50;2048.00
70593;DHT22;58294;42.988;20.338;2022-12-24T13:25:49;307.50;2048.00
70593;DHT22;58294;42.988;20.338;2022-12-24T13:36:08;307.50;2073.60
70593;DHT22;58294;42.988;20.338;2022-12-24T13:39:00;307.40;2022.40
70593;DHT22;58294;42.988;20.338;2022-12-24T13:44:19;307.40;2048.00
70593;DHT22;58294;42.988;20.338;2022-12-24T13:47:01;307.40;2073.60
70593;DHT22;58294;42.988;20.338;2022-12-24T13:49:40;307.40;2099.20
70593;DHT22;58294;42.988;20.338;2022-12-24T14:00:21;307.40;2048.00
70593;DHT22;58294;42.988;20.338;2022-12-24T14:05:22;307.40;2048.00
70593;DHT22;58294;42.988;20.338;2022-12-24T14:07:50;307.40;2048.00
70593;DHT22;58294;42.988;20.338;2022-12-24T14:10:27;307.30;2048.00
70593;DHT22;58294;42.988;20.338;2022-12-24T14:12:54;307.30;1996.80
70593;DHT22;58294;42.988;20.338;2022-12-24T14:18:18;307.20;2073.60
70593;DHT22;58294;42.988;20.338;2022-12-24T14:20:48;307.20;2073.60
70593;DHT22;58294;42.988;20.338;2022-12-24T14:23:53;307.20;2099.20
70593;DHT22;58294;42.988;20.338;2022-12-24T14:26:22;307.20;2073.60
70593;DHT22;58294;42.988;20.338;2022-12-24T14:29:00;307.20;2099.20
70593;DHT22;58294;42.988;20.338;2022-12-24T14:31:27;307.20;2099.20
70593;DHT22;58294;42.988;20.338;2022-12-24T14:34:13;307.20;2150.40
70593;DHT22;58294;42.988;20.338;2022-12-24T14:36:42;307.30;2124.80
70593;DHT22;58294;42.988;20.338;2022-12-24T14:39:20;307.30;2124.80
70593;DHT22;58294;42.988;20.338;2022-12-24T14:44:40;307.30;2150.40
70593;DHT22;58294;42.988;20.338;2022-12-24T14:47:36;307.30;2176.00
70593;DHT22;58294;42.988;20.338;2022-12-24T14:50:33;307.30;2150.40
70593;DHT22;58294;42.988;20.338;2022-12-24T14:56:15;307.40;2150.40
70593;DHT22;58294;42.988;20.338;2022-12-24T14:58:42;307.40;2150.40
70593;DHT22;58294;42.988;20.338;2022-12-24T15:01:38;307.30;2150.40
70593;DHT22;58294;42.988;20.338;2022-12-24T15:09:19;307.20;2099.20
70593;DHT22;58294;42.988;20.338;2022-12-24T15:11:48;282.50;2073.60
70593;DHT22;58294;42.988;20.338;2022-12-24T15:14:15;282.40;2073.60
70593;DHT22;58294;42.988;20.338;2022-12-24T15:24:35;282.20;2022.40
70593;DHT22;58294;42.988;20.338;2022-12-24T15:27:11;282.00;2099.20
70593;DHT22;58294;42.988;20.338;2022-12-24T15:29:42;281.90;2124.80
70593;DHT22;58294;42.988;20.338;2022-12-24T15:32:14;281.80;2150.40
70593;DHT22;58294;42.988;20.338;2022-12-24T15:34:42;281.90;2201.60
70593;DHT22;58294;42.988;20.338;2022-12-24T15:37:20;281.90;2176.00
70593;DHT22;58294;42.988;20.338;2022-12-24T15:40:34;281.80;2176.00
70593;DHT22;58294;42.988;20.338;2022-12-24T15:42:42;281.70;2176.00
70593;DHT22;58294;42.988;20.338;2022-12-24T15:45:22;281.70;2201.60
70593;DHT22;58294;42.988;20.338;2022-12-24T15:47:51;281.60;2227.20
70593;DHT22;58294;42.988;20.338;2022-12-24T15:50:27;281.60;2252.80
70593;DHT22;58294;42.988;20.338;2022-12-24T15:52:55;281.60;2252.80
70593;DHT22;58294;42.988;20.338;2022-12-24T15:55:45;281.60;2278.40
70593;DHT22;58294;42.988;20.338;2022-12-24T16:00:41;281.70;2278.40
70593;DHT22;58294;42.988;20.338;2022-12-24T16:03:18;281.60;2252.80
70593;DHT22;58294;42.988;20.338;2022-12-24T16:05:45;281.60;2252.80
70593;DHT22;58294;42.988;20.338;2022-12-24T16:10:43;281.60;2278.40
70593;DHT22;58294;42.988;20.338;2022-12-24T16:13:29;281.70;2278.40
70593;DHT22;58294;42.988;20.338;2022-12-24T16:16:02;281.70;2278.40
70593;DHT22;58294;42.988;20.338;2022-12-24T16:18:34;281.60;2278.40
70593;DHT22;58294;42.988;20.338;2022-12-24T16:21:01;281.60;2278.40
70593;DHT22;58294;42.988;20.338;2022-12-24T16:23:36;281.60;2278.40
70593;DHT22;58294;42.988;20.338;2022-12-24T16:26:02;256.90;2252.80
70593;DHT22;58294;42.988;20.338;2022-12-24T16:28:28;256.90;2252.80
70593;DHT22;58294;42.988;20.338;2022-12-24T16:30:55;256.80;2252.80
70593;DHT22;58294;42.988;20.338;2022-12-24T16:33:21;256.90;2252.80
70593;DHT22;58294;42.988;20.338;2022-12-24T16:35:48;256.90;2252.80
70593;DHT22;58294;42.988;20.338;2022-12-24T16:38:15;256.90;2252.80
70593;DHT22;58294;42.988;20.338;2022-12-24T16:40:41;256.90;2252.80
70593;DHT22;58294;42.988;20.338;2022-12-24T16:43:08;256.90;2252.80
70593;DHT22;58294;42.988;20.338;2022-12-24T16:45:53;281.60;2278.40
70593;DHT22;58294;42.988;20.338;2022-12-24T16:48:24;281.60;2278.40
70593;DHT22;58294;42.988;20.338;2022-12-24T16:50:51;281.60;2278.40
70593;DHT22;58294;42.988;20.338;2022-12-24T16:53:19;281.60;2278.40
70593;DHT22;58294;42.988;20.338;2022-12-24T16:55:45;281.60;2278.40
70593;DHT22;58294;42.988;20.338;2022-12-24T16:58:13;281.60;2278.40
70593;DHT22;58294;42.988;20.338;2022-12-24T17:00:40;256.90;2252.80
70593;DHT22;58294;42.988;20.338;2022-12-24T17:03:06;256.80;2252.80
70593;DHT22;58294;42.988;20.338;2022-12-24T17:05:36;256.80;2252.80
70593;DHT22;58294;42.988;20.338;2022-12-24T17:08:01;256.80;2252.80
70593;DHT22;58294;42.988;20.338;2022-12-24T17:10:27;256.80;2252.80
70593;DHT22;58294;42.988;20.338;2022-12-24T17:12:53;256.90;2252.80
70593;DHT22;58294;42.988;20.338;2022-12-24T17:15:19;256.80;2252.80
70593;DHT22;58294;42.988;20.338;2022-12-24T17:17:45;256.80;2252.80
70593;DHT22;58294;42.988;20.338;2022-12-24T17:20:11;256.90;2252.80
70593;DHT22;58294;42.988;20.338;2022-12-24T17:22:37;256.90;2252.80
70593;DHT22;58294;42.988;20.338;2022-12-24T17:25:03;256.70;2252.80
70593;DHT22;58294;42.988;20.338;2022-12-24T17:27:30;256.70;2252.80
70593;DHT22;58294;42.988;20.338;2022-12-24T17:29:55;256.60;2252.80
70593;DHT22;58294;42.988;20.338;2022-12-24T17:32:21;256.60;2252.80
70593;DHT22;58294;42.988;20.338;2022-12-24T17:34:47;256.50;2252.80
70593;DHT22;58294;42.988;20.338;2022-12-24T17:37:13;256.40;2252.80
70593;DHT22;58294;42.988;20.338;2022-12-24T17:39:39;256.40;2252.80
70593;DHT22;58294;42.988;20.338;2022-12-24T17:42:05;256.30;2252.80
70593;DHT22;58294;42.988;20.338;2022-12-24T17:44:31;256.30;2252.80
70593;DHT22;58294;42.988;20.338;2022-12-24T17:46:56;256.40;2252.80
70593;DHT22;58294;42.988;20.338;2022-12-24T17:49:22;256.40;2252.80
70593;DHT22;58294;42.988;20.338;2022-12-24T17:51:48;256.40;2252.80